createdAt,value
2018-12-25T00:04:27.642Z,75.39
2018-12-25T00:07:17.729Z,73.72
2018-12-25T00:13:28.508Z,72.81
2018-12-25T00:16:18.089Z,73.74
2018-12-25T00:19:08.191Z,74.38
2018-12-25T00:21:57.780Z,73.46
2018-12-25T00:24:47.371Z,74.05
2018-12-25T00:27:36.969Z,73.89
2018-12-25T00:30:26.524Z,73.94
2018-12-25T00:33:16.111Z,72.79
2018-12-25T00:36:05.696Z,73.43
2018-12-25T00:38:55.326Z,73.87
2018-12-25T00:41:44.896Z,73.26
2018-12-25T00:44:34.503Z,73.77
2018-12-25T00:47:24.095Z,72.76
2018-12-25T00:50:13.734Z,73.46
2018-12-25T00:53:03.835Z,74.22
2018-12-25T00:55:53.410Z,74.82
2018-12-25T00:59:02.520Z,74.37
2018-12-25T01:01:52.087Z,75.11
2018-12-25T01:04:41.673Z,75.08
2018-12-25T01:07:31.245Z,74.07
2018-12-25T01:10:20.820Z,73.60
2018-12-25T01:13:10.465Z,76.69
2018-12-25T01:15:52.827Z,76.70
2018-12-25T01:18:42.917Z,77.39
2018-12-25T01:21:32.512Z,78.17
2018-12-25T01:24:22.267Z,77.46
2018-12-25T01:27:31.290Z,77.61
2018-12-25T01:33:15.904Z,76.44
2018-12-25T01:36:05.502Z,77.74
2018-12-25T01:38:55.550Z,77.28
2018-12-25T01:41:45.119Z,77.09
2018-12-25T01:44:35.018Z,77.77
2018-12-25T01:47:26.315Z,76.71
2018-12-25T01:50:15.911Z,77.30
2018-12-25T01:53:05.493Z,77.30
2018-12-25T01:55:55.081Z,77.93
2018-12-25T01:59:03.741Z,77.55
2018-12-25T02:01:53.332Z,77.30
2018-12-25T02:04:42.908Z,77.61
2018-12-25T02:07:32.479Z,77.39
2018-12-25T02:10:22.399Z,77.04
2018-12-25T02:13:11.971Z,77.57
2018-12-25T02:15:53.915Z,77.94
2018-12-25T02:18:43.555Z,78.62
2018-12-25T02:21:33.669Z,77.15
2018-12-25T02:24:42.186Z,77.01
2018-12-25T02:27:31.748Z,76.88
2018-12-25T02:30:21.319Z,77.37
2018-12-25T02:33:10.895Z,78.04
2018-12-25T02:36:00.466Z,78.07
2018-12-25T02:38:50.945Z,78.07
2018-12-25T02:41:40.524Z,78.05
2018-12-25T02:44:30.093Z,78.77
2018-12-25T02:47:19.663Z,79.14
2018-12-25T02:50:09.236Z,78.66
2018-12-25T02:52:59.267Z,79.03
2018-12-25T02:55:49.136Z,79.26
2018-12-25T02:58:38.690Z,78.73
2018-12-25T03:01:28.266Z,77.85
2018-12-25T03:04:17.844Z,78.70
2018-12-25T03:10:15.823Z,78.44
2018-12-25T03:13:05.411Z,77.78
2018-12-25T03:15:47.579Z,78.39
2018-12-25T03:18:37.223Z,78.39
2018-12-25T03:21:27.319Z,78.51
2018-12-25T03:24:16.873Z,77.87
2018-12-25T03:27:07.493Z,77.75
2018-12-25T03:29:57.584Z,78.21
2018-12-25T03:32:47.134Z,78.94
2018-12-25T03:35:36.710Z,78.27
2018-12-25T03:38:26.272Z,77.48
2018-12-25T03:41:15.859Z,78.91
2018-12-25T03:44:05.402Z,78.69
2018-12-25T03:46:54.976Z,77.02
2018-12-25T03:49:44.542Z,78.94
2018-12-25T03:52:34.114Z,77.50
2018-12-25T03:55:23.800Z,77.67
2018-12-25T03:58:13.398Z,77.90
2018-12-25T04:01:02.969Z,78.15
2018-12-25T04:03:52.605Z,78.30
2018-12-25T04:06:42.188Z,78.21
2018-12-25T04:09:31.769Z,77.51
2018-12-25T04:12:21.333Z,78.07
2018-12-25T04:15:03.949Z,76.63
2018-12-25T04:17:53.529Z,76.60
2018-12-25T04:20:43.545Z,75.91
2018-12-25T04:23:33.132Z,77.47
2018-12-25T04:26:22.726Z,76.58
2018-12-25T04:29:12.293Z,76.44
2018-12-25T04:32:01.879Z,75.56
2018-12-25T04:34:51.446Z,75.92
2018-12-25T04:37:41.280Z,74.48
2018-12-25T04:40:31.055Z,74.71
2018-12-25T04:43:20.647Z,75.23
2018-12-25T04:46:10.459Z,76.63
2018-12-25T04:49:00.039Z,76.23
2018-12-25T04:51:49.620Z,76.21
2018-12-25T04:54:39.174Z,75.29
2018-12-25T04:57:28.766Z,75.26
2018-12-25T05:03:26.757Z,76.14
2018-12-25T05:06:16.800Z,73.84
2018-12-25T05:09:08.052Z,74.60
2018-12-25T05:11:57.640Z,73.44
2018-12-25T05:14:39.745Z,73.56
2018-12-25T05:17:29.307Z,73.50
2018-12-25T05:20:18.893Z,73.08
2018-12-25T05:23:15.352Z,74.19
2018-12-25T05:26:04.930Z,73.92
2018-12-25T05:28:54.951Z,73.58
2018-12-25T05:31:44.528Z,73.98
2018-12-25T05:40:23.645Z,73.62
2018-12-25T05:43:13.238Z,74.29
2018-12-25T05:46:21.740Z,72.64
2018-12-25T05:49:11.305Z,71.76
2018-12-25T05:52:01.464Z,72.46
2018-12-25T05:54:51.579Z,72.57
2018-12-25T05:57:41.127Z,72.89
2018-12-25T06:00:30.798Z,72.83
2018-12-25T06:03:20.376Z,73.33
2018-12-25T06:06:10.377Z,71.91
2018-12-25T06:08:59.959Z,71.91
2018-12-25T06:11:49.559Z,72.40
2018-12-25T06:14:32.792Z,71.69
2018-12-25T06:17:22.327Z,71.35
2018-12-25T06:20:11.907Z,71.98
2018-12-25T06:23:01.897Z,71.74
2018-12-25T06:25:51.503Z,71.01
2018-12-25T06:28:41.559Z,71.36
2018-12-25T06:31:31.149Z,72.54
2018-12-25T06:37:23.312Z,71.01
2018-12-25T06:40:12.518Z,71.59
2018-12-25T06:43:01.909Z,71.71
2018-12-25T06:45:51.089Z,70.77
2018-12-25T06:48:40.211Z,71.73
2018-12-25T06:51:29.937Z,70.80
2018-12-25T06:54:19.080Z,70.13
2018-12-25T06:57:08.574Z,70.92
2018-12-25T06:59:57.944Z,71.38
2018-12-25T07:02:47.353Z,71.49
2018-12-25T07:05:36.813Z,72.42
2018-12-25T07:08:26.207Z,72.04
2018-12-25T07:11:15.376Z,71.31
2018-12-25T07:13:57.506Z,71.72
2018-12-25T07:16:46.680Z,70.94
2018-12-25T07:19:35.825Z,72.05
2018-12-25T07:22:24.986Z,71.18
2018-12-25T07:25:14.417Z,72.35
2018-12-25T07:28:03.620Z,72.54
2018-12-25T07:30:53.058Z,74.25
2018-12-25T07:33:42.198Z,74.60
2018-12-25T07:36:31.741Z,74.22
2018-12-25T07:39:20.882Z,75.04
2018-12-25T07:42:10.040Z,74.99
2018-12-25T07:44:59.194Z,74.95
2018-12-25T07:47:48.577Z,74.97
2018-12-25T07:50:37.788Z,75.71
2018-12-25T07:53:27.210Z,75.39
2018-12-25T07:56:16.686Z,75.63
2018-12-25T08:02:13.938Z,74.94
2018-12-25T08:05:03.323Z,75.24
2018-12-25T08:07:52.485Z,74.71
2018-12-25T08:10:41.856Z,75.25
2018-12-25T08:13:24.221Z,75.60
2018-12-25T08:16:13.960Z,75.14
2018-12-25T08:19:03.113Z,75.84
2018-12-25T08:21:52.353Z,74.71
2018-12-25T08:24:41.512Z,73.22
2018-12-25T08:27:30.660Z,74.68
2018-12-25T08:30:19.799Z,73.47
2018-12-25T08:33:09.268Z,72.46
2018-12-25T08:35:58.784Z,73.34
2018-12-25T08:38:47.970Z,71.71
2018-12-25T08:41:37.127Z,71.98
2018-12-25T08:44:26.274Z,71.69
2018-12-25T08:47:15.424Z,72.43
2018-12-25T08:50:06.341Z,73.18
2018-12-25T08:52:55.615Z,72.48
2018-12-25T08:55:44.886Z,71.59
2018-12-25T08:58:34.032Z,71.13
2018-12-25T09:01:23.208Z,72.56
2018-12-25T09:04:12.772Z,72.85
2018-12-25T09:07:02.249Z,72.17
2018-12-25T09:10:10.658Z,71.11
2018-12-25T09:15:46.997Z,71.52
2018-12-25T09:18:36.644Z,72.05
2018-12-25T09:21:25.840Z,72.08
2018-12-25T09:24:15.006Z,72.54
2018-12-25T09:27:04.372Z,71.77
2018-12-25T09:29:53.516Z,72.45
2018-12-25T09:32:42.647Z,71.91
2018-12-25T09:35:31.795Z,71.96
2018-12-25T09:38:20.928Z,71.97
2018-12-25T09:41:10.074Z,72.01
2018-12-25T09:43:59.262Z,72.28
2018-12-25T09:46:48.404Z,71.57
2018-12-25T09:49:37.877Z,71.81
2018-12-25T09:52:27.007Z,71.60
2018-12-25T09:55:16.453Z,71.53
2018-12-25T09:58:05.593Z,71.31
2018-12-25T10:00:54.954Z,71.59
2018-12-25T10:03:44.091Z,71.89
2018-12-25T10:06:33.333Z,73.15
2018-12-25T10:09:22.687Z,72.65
2018-12-25T10:12:12.116Z,72.86
2018-12-25T10:14:54.503Z,71.96
2018-12-25T10:17:43.644Z,72.69
2018-12-25T10:20:33.026Z,71.91
2018-12-25T10:23:41.561Z,72.61
2018-12-25T10:26:30.726Z,72.09
2018-12-25T10:29:19.879Z,72.28
2018-12-25T10:32:09.310Z,71.90
2018-12-25T10:34:58.684Z,71.92
2018-12-25T10:37:48.462Z,72.30
2018-12-25T10:40:37.631Z,72.58
2018-12-25T10:43:27.407Z,71.74
2018-12-25T10:46:16.783Z,70.27
2018-12-25T10:49:06.172Z,71.32
2018-12-25T10:51:55.347Z,70.61
2018-12-25T10:54:44.524Z,71.11
2018-12-25T10:57:33.667Z,71.33
2018-12-25T11:00:22.835Z,71.32
2018-12-25T11:03:13.141Z,70.89
2018-12-25T11:06:02.924Z,70.85
2018-12-25T11:08:52.374Z,71.20
2018-12-25T11:11:41.526Z,71.52
2018-12-25T11:14:24.267Z,70.79
2018-12-25T11:17:13.413Z,70.78
2018-12-25T11:20:02.552Z,72.02
2018-12-25T11:22:51.961Z,71.08
2018-12-25T11:28:49.233Z,70.37
2018-12-25T11:31:38.608Z,71.25
2018-12-25T11:34:27.891Z,71.31
2018-12-25T11:37:17.579Z,71.49
2018-12-25T11:40:25.800Z,70.74
2018-12-25T11:43:15.245Z,71.12
2018-12-25T11:46:04.366Z,71.18
2018-12-25T11:48:53.546Z,70.70
2018-12-25T11:51:42.702Z,71.22
2018-12-25T11:54:31.858Z,69.86
2018-12-25T11:57:20.997Z,69.65
2018-12-25T12:00:11.866Z,70.24
2018-12-25T12:03:01.342Z,69.06
2018-12-25T12:05:50.491Z,69.35
2018-12-25T12:08:39.645Z,68.87
2018-12-25T12:11:28.792Z,69.52
2018-12-25T12:14:11.200Z,69.80
2018-12-25T12:17:00.362Z,70.05
2018-12-25T12:19:49.972Z,70.15
2018-12-25T12:22:39.164Z,70.26
2018-12-25T12:25:28.531Z,69.32
2018-12-25T12:28:17.709Z,69.42
2018-12-25T12:31:06.913Z,69.21
2018-12-25T12:33:56.070Z,68.73
2018-12-25T12:36:45.208Z,69.29
2018-12-25T12:39:34.604Z,69.69
2018-12-25T12:42:23.968Z,68.94
2018-12-25T12:45:13.423Z,68.24
2018-12-25T12:48:02.603Z,69.16
2018-12-25T12:50:51.786Z,68.38
2018-12-25T12:53:40.938Z,68.22
2018-12-25T12:56:30.080Z,69.04
2018-12-25T12:59:19.256Z,68.88
2018-12-25T13:02:08.398Z,69.68
2018-12-25T13:04:57.552Z,69.71
2018-12-25T13:07:47.282Z,68.56
2018-12-25T13:10:36.430Z,68.82
2018-12-25T13:13:25.655Z,68.88
2018-12-25T13:16:15.078Z,69.46
2018-12-25T13:19:04.250Z,68.72
2018-12-25T13:21:53.723Z,68.57
2018-12-25T13:24:42.875Z,67.17
2018-12-25T13:27:32.001Z,67.94
2018-12-25T13:30:21.441Z,67.74
2018-12-25T13:33:10.577Z,67.65
2018-12-25T13:35:59.779Z,67.83
2018-12-25T13:38:48.942Z,66.40
2018-12-25T13:41:38.105Z,67.61
2018-12-25T13:44:27.305Z,67.87
2018-12-25T13:47:16.760Z,68.24
2018-12-25T13:50:07.892Z,68.07
2018-12-25T13:53:02.743Z,68.01
2018-12-25T13:55:48.211Z,67.21
2018-12-25T13:58:37.363Z,66.95
2018-12-25T14:01:26.515Z,67.58
2018-12-25T14:07:25.406Z,68.03
2018-12-25T14:10:14.999Z,66.99
2018-12-25T14:13:04.362Z,67.12
2018-12-25T14:15:46.546Z,66.14
2018-12-25T14:18:36.123Z,66.83
2018-12-25T14:21:25.309Z,68.04
2018-12-25T14:24:26.369Z,67.58
2018-12-25T14:27:05.351Z,66.47
2018-12-25T14:29:54.495Z,65.99
2018-12-25T14:33:03.068Z,66.39
2018-12-25T14:35:52.443Z,66.55
2018-12-25T14:38:41.802Z,66.54
2018-12-25T14:41:31.026Z,67.67
2018-12-25T14:44:20.522Z,67.09
2018-12-25T14:47:10.017Z,68.07
2018-12-25T14:49:59.180Z,68.15
2018-12-25T14:52:48.331Z,69.31
2018-12-25T14:55:37.466Z,67.38
2018-12-25T14:58:26.985Z,68.25
2018-12-25T15:01:16.365Z,66.89
2018-12-25T15:04:05.531Z,67.32
2018-12-25T15:06:54.712Z,66.76
2018-12-25T15:09:43.866Z,67.17
2018-12-25T15:12:33.026Z,67.08
2018-12-25T15:15:15.360Z,67.18
2018-12-25T15:18:23.925Z,67.69
2018-12-25T15:21:13.075Z,66.70
2018-12-25T15:24:02.233Z,67.25
2018-12-25T15:29:59.983Z,67.39
2018-12-25T15:32:49.169Z,68.43
2018-12-25T15:35:38.546Z,67.27
2018-12-25T15:38:27.713Z,65.96
2018-12-25T15:41:16.890Z,66.68
2018-12-25T15:44:06.308Z,67.36
2018-12-25T15:46:55.689Z,68.11
2018-12-25T15:49:45.474Z,67.50
2018-12-25T15:52:34.680Z,67.70
2018-12-25T15:55:23.884Z,67.56
2018-12-25T15:58:15.776Z,67.47
2018-12-25T16:01:05.221Z,66.21
2018-12-25T16:03:54.414Z,67.13
2018-12-25T16:06:43.570Z,66.70
2018-12-25T16:09:32.752Z,66.43
2018-12-25T16:12:22.121Z,65.66
2018-12-25T16:15:04.535Z,66.44
2018-12-25T16:17:53.698Z,66.87
2018-12-25T16:20:42.879Z,66.91
2018-12-25T16:23:32.026Z,66.50
2018-12-25T16:26:21.187Z,65.01
2018-12-25T16:29:10.322Z,65.53
2018-12-25T16:31:59.477Z,66.46
2018-12-25T16:34:48.974Z,66.24
2018-12-25T16:37:38.117Z,65.75
2018-12-25T16:40:27.245Z,65.74
2018-12-25T16:43:16.409Z,66.19
2018-12-25T16:46:05.548Z,66.05
2018-12-25T16:48:54.698Z,65.62
2018-12-25T16:51:43.848Z,66.46
2018-12-25T16:54:33.644Z,66.19
2018-12-25T16:57:22.794Z,66.08
2018-12-25T17:00:12.616Z,65.13
2018-12-25T17:03:01.776Z,65.15
2018-12-25T17:05:50.937Z,65.07
2018-12-25T17:08:40.409Z,64.31
2018-12-25T17:11:29.567Z,64.65
2018-12-25T17:14:12.074Z,65.00
2018-12-25T17:17:01.562Z,65.04
2018-12-25T17:19:50.742Z,65.20
2018-12-25T17:22:39.926Z,65.01
2018-12-25T17:25:29.088Z,65.71
2018-12-25T17:28:18.541Z,64.52
2018-12-25T17:31:07.954Z,66.04
2018-12-25T17:33:57.364Z,65.73
2018-12-25T17:36:46.524Z,65.86
2018-12-25T17:39:35.676Z,67.06
2018-12-25T17:42:24.887Z,67.30
2018-12-25T17:45:14.032Z,67.07
2018-12-25T17:48:03.174Z,66.48
2018-12-25T17:50:52.619Z,65.92
2018-12-25T17:53:41.789Z,64.87
2018-12-25T17:56:37.769Z,65.88
2018-12-25T17:59:41.123Z,65.30
2018-12-25T18:02:30.299Z,65.45
2018-12-25T18:05:19.444Z,65.94
2018-12-25T18:08:08.696Z,66.01
2018-12-25T18:10:57.842Z,65.42
2018-12-25T18:13:40.131Z,65.64
2018-12-25T18:16:30.169Z,66.68
2018-12-25T18:19:20.188Z,65.68
2018-12-25T18:22:10.021Z,65.50
2018-12-25T18:24:59.491Z,67.11
2018-12-25T18:27:48.685Z,66.29
2018-12-25T18:30:38.074Z,65.93
2018-12-25T18:33:27.543Z,66.50
2018-12-25T18:36:16.702Z,65.81
2018-12-25T18:39:26.469Z,66.25
2018-12-25T18:42:23.068Z,64.97
2018-12-25T18:45:07.605Z,64.24
2018-12-25T18:47:57.403Z,64.79
2018-12-25T18:50:46.879Z,64.11
2018-12-25T18:53:36.036Z,64.91
2018-12-25T18:56:25.193Z,64.71
2018-12-25T18:59:14.716Z,65.26
2018-12-25T19:02:04.162Z,64.83
2018-12-25T19:04:53.306Z,64.91
2018-12-25T19:07:42.467Z,65.67
2018-12-25T19:10:31.972Z,65.99
2018-12-25T19:13:21.178Z,65.67
2018-12-25T19:16:10.346Z,66.11
2018-12-25T19:18:59.774Z,67.01
2018-12-25T19:21:49.251Z,66.95
2018-12-25T19:24:38.714Z,66.47
2018-12-25T19:27:27.885Z,66.24
2018-12-25T19:30:18.287Z,66.71
2018-12-25T19:33:07.696Z,66.32
2018-12-25T19:35:56.864Z,64.97
2018-12-25T19:38:46.039Z,65.55
2018-12-25T19:41:35.206Z,66.91
2018-12-25T19:44:43.401Z,66.32
2018-12-25T19:47:32.861Z,66.32
2018-12-25T19:50:24.340Z,65.84
2018-12-25T19:53:32.173Z,66.52
2018-12-25T19:56:21.326Z,65.35
2018-12-25T19:59:10.485Z,65.34
2018-12-25T20:01:59.646Z,65.70
2018-12-25T20:12:41.087Z,64.57
2018-12-25T20:15:32.894Z,65.41
2018-12-25T20:19:00.493Z,65.18
2018-12-25T20:22:28.083Z,64.73
2018-12-25T20:25:55.668Z,64.89
2018-12-25T20:29:23.284Z,65.02
2018-12-25T20:32:36.769Z,64.64
2018-12-25T20:36:04.355Z,64.00
2018-12-25T20:39:31.950Z,64.82
2018-12-25T20:42:59.546Z,63.47
2018-12-25T20:46:33.590Z,63.02
2018-12-25T20:50:11.416Z,62.99
2018-12-25T20:53:39.000Z,63.30
2018-12-25T20:57:06.610Z,62.66
2018-12-25T21:00:34.498Z,62.76
2018-12-25T21:04:02.316Z,63.95
2018-12-25T21:07:39.987Z,65.47
2018-12-25T21:11:07.561Z,63.57
2018-12-25T21:18:04.247Z,63.10
2018-12-25T21:21:31.831Z,61.79
2018-12-25T21:24:59.421Z,64.20
2018-12-25T21:27:47.456Z,63.40
2018-12-25T21:33:53.068Z,62.95
2018-12-25T21:37:03.029Z,62.35
2018-12-25T21:46:42.128Z,62.62
2018-12-25T21:52:46.506Z,64.01
2018-12-25T21:55:35.780Z,66.15
2018-12-25T21:58:25.246Z,62.62
2018-12-25T22:07:45.871Z,63.18
2018-12-25T22:10:35.026Z,62.73
2018-12-25T22:13:24.184Z,63.52
2018-12-25T22:16:13.356Z,62.68
2018-12-25T22:22:10.913Z,62.77
2018-12-25T22:25:00.036Z,62.39
2018-12-25T22:27:49.189Z,63.66
2018-12-25T22:30:38.364Z,63.28
2018-12-25T22:33:27.611Z,63.17
2018-12-25T22:36:16.761Z,62.68
2018-12-25T22:39:46.701Z,62.86
2018-12-25T22:42:36.568Z,62.53
2018-12-25T22:45:25.928Z,63.10
2018-12-25T22:48:34.129Z,62.37
2018-12-25T22:51:23.289Z,62.31
2018-12-25T22:54:12.481Z,62.40
2018-12-25T22:57:01.659Z,64.17
2018-12-25T22:59:51.042Z,63.35
2018-12-25T23:02:40.474Z,64.11
2018-12-25T23:05:29.614Z,63.06
2018-12-25T23:08:18.745Z,63.41
2018-12-25T23:11:07.900Z,63.22
2018-12-25T23:13:49.531Z,63.81
2018-12-25T23:16:38.952Z,64.39
2018-12-25T23:19:28.095Z,63.63
2018-12-25T23:25:12.302Z,64.77
2018-12-25T23:28:01.453Z,64.07
2018-12-25T23:30:50.600Z,65.35
2018-12-25T23:33:59.495Z,64.24
2018-12-25T23:36:50.057Z,63.60
2018-12-25T23:39:39.825Z,65.89
2018-12-25T23:42:29.723Z,64.88
2018-12-25T23:45:18.885Z,64.59
2018-12-25T23:48:08.266Z,65.21
2018-12-25T23:50:57.735Z,64.28
2018-12-25T23:53:46.904Z,64.53
2018-12-25T23:56:36.575Z,63.55
2018-12-25T23:59:26.056Z,63.13
